WetterOnline ( http://www.wetteronline.de )

Wetter aktuell Leutkirch

Aktuelles Wetter: Leutkirch-Herlazhofen (671m)

6-stündlich | Neueste Meldungen
Ortszeit Temperatur Wetter
Sa, 18.08. 8:00 14.5° C leicht bewölkt
Sa, 18.08. 2:00 16.1° C bewölkt
Fr, 17.08. 20:00 21.7° C wolkig
Fr, 17.08. 14:00 25.4° C fast wolkenlos
Fr, 17.08. 8:00 15.3° C leicht bewölkt
Fr, 17.08. 2:00 11.3° C wolkenlos
Do, 16.08. 20:00 24.0° C wolkenlos
Do, 16.08. 14:00 26.1° C wolkenlos
Ortszeit Temperatur Wetter
Sa, 18.08. 8:00 14.5° C leicht bewölkt
Sa, 18.08. 7:50 14.5° C leicht bewölkt
Sa, 18.08. 7:40 14.3° C leicht bewölkt
Sa, 18.08. 7:30 14.4° C bewölkt
Sa, 18.08. 7:20 14.4° C bewölkt
Sa, 18.08. 7:10 14.3° C bedeckt
Sa, 18.08. 7:00 14.6° C bedeckt
Sa, 18.08. 6:30 14.7° C bedeckt
Sa, 18.08. 6:00 14.7° C bedeckt
Sa, 18.08. 5:30 15.4° C wolkig
Sa, 18.08. 5:00 15.8° C bewölkt
Ortszeit Relative Feuchte Sichtweite
Sa, 18.08. 8:00 96% 9 km
Sa, 18.08. 2:00 86% 55 km
Fr, 17.08. 20:00 62% 70 km
Fr, 17.08. 14:00 42% 70 km
Fr, 17.08. 8:00 81% 45 km
Fr, 17.08. 2:00 95% 21 km
Do, 16.08. 20:00 44% 70 km
Do, 16.08. 14:00 40% 60 km
Ortszeit Relative Feuchte Sichtweite
Sa, 18.08. 8:00 96% 9 km
Sa, 18.08. 7:50 96% -
Sa, 18.08. 7:40 96% -
Sa, 18.08. 7:30 96% 12 km
Sa, 18.08. 7:20 96% -
Sa, 18.08. 7:10 96% -
Sa, 18.08. 7:00 96% 18 km
Sa, 18.08. 6:30 96% 23 km
Sa, 18.08. 6:00 94% 25 km
Sa, 18.08. 5:30 91% 30 km
Sa, 18.08. 5:00 90% 50 km
Ortszeit Niederschlagsmenge Niederschlagsart
Sa, 18.08. 8:00 1 l/m2 in 12 Std. Regen
Sa, 18.08. 2:00 1 l/m2 in 6 Std. Regen
Fr, 17.08. 20:00 0.0 l/m2 in 12 Std. -
Fr, 17.08. 14:00 0.0 l/m2 in 6 Std. -
Fr, 17.08. 8:00 0.0 l/m2 in 12 Std. -
Fr, 17.08. 2:00 0.0 l/m2 in 6 Std. -
Do, 16.08. 20:00 0.0 l/m2 in 12 Std. -
Do, 16.08. 14:00 0.0 l/m2 in 6 Std. -
Ortszeit Niederschlagsmenge Niederschlagsart
Sa, 18.08. 8:00 0.0 l/m2 in 1 Std. Regen
Sa, 18.08. 7:50 keine Meldung -
Sa, 18.08. 7:40 keine Meldung -
Sa, 18.08. 7:30 0.0 l/m2 in 1 Std. -
Sa, 18.08. 7:20 keine Meldung -
Sa, 18.08. 7:10 keine Meldung -
Sa, 18.08. 7:00 0.0 l/m2 in 1 Std. -
Sa, 18.08. 6:30 0.0 l/m2 in 1 Std. -
Sa, 18.08. 6:00 0.0 l/m2 in 1 Std. -
Sa, 18.08. 5:30 0.0 l/m2 in 1 Std. -
Sa, 18.08. 5:00 0.0 l/m2 in 1 Std. Regen
Ortszeit Stärke Spitze Richtung
km/h Bft. km/h Grad Sektor
Sa, 18.08. 8:00 2 1 9 100° O
Sa, 18.08. 2:00 4 1 29 200° S
Fr, 17.08. 20:00 15 3 30 240° SW
Fr, 17.08. 14:00 6 1 24 170° S
Fr, 17.08. 8:00 4 1 7 130° SO
Fr, 17.08. 2:00 0 0 11 - -
Do, 16.08. 20:00 6 1 22 50° NO
Do, 16.08. 14:00 11 2 25 80° O
Ortszeit Stärke Spitze Richtung
km/h Bft. km/h Grad Sektor
Sa, 18.08. 8:00 2 1 4 100° O
Sa, 18.08. 7:50 2 1 - 100° O
Sa, 18.08. 7:40 2 1 - 120° SO
Sa, 18.08. 7:30 0 0 4 - -
Sa, 18.08. 7:20 0 0 - 230° SW
Sa, 18.08. 7:10 2 1 - 200° S
Sa, 18.08. 7:00 2 1 4 120° SO
Sa, 18.08. 6:30 4 1 4 130° SO
Sa, 18.08. 6:00 4 1 4 270° W
Sa, 18.08. 5:30 2 1 6 170° S
Sa, 18.08. 5:00 4 1 7 160° S
Ortszeit Untergrenze Bedeckung Gattung
total tief tief mittel hoch
Sa, 18.08. 8:00 9000 m 4/8 0/8 - - -
Sa, 18.08. 2:00 2100 m 8/8 7/8 - - -
Fr, 17.08. 20:00 2400 m 8/8 2/8 - - -
Fr, 17.08. 14:00 8700 m 2/8 0/8 - - -
Fr, 17.08. 8:00 9000 m 4/8 0/8 - - -
Fr, 17.08. 2:00 10500 m 0/8 0/8 - - -
Do, 16.08. 20:00 - 0/8 0/8 - - -
Do, 16.08. 14:00 - 0/8 0/8 - - -
Ortszeit Bedeckungsgrad in Achtel und Wolkenuntergrenze
Sa, 18.08. 8:00 2(9000m) 4(10500m)
Sa, 18.08. 7:50 2(9000m) 4(10500m)
Sa, 18.08. 7:40 1(3000m) 5(10500m)
Sa, 18.08. 7:30 6(3000m) 7(10500m)
Sa, 18.08. 7:20 6(3000m) 7(10500m)
Sa, 18.08. 7:10 8(3000m)
Sa, 18.08. 7:00 8(3000m)
Sa, 18.08. 6:30 8(3000m)
Sa, 18.08. 6:00 6(3000m) 8(3900m)
Sa, 18.08. 5:30 1(2100m) 4(3000m) 8(3900m)
Sa, 18.08. 5:00 2(1470m) 6(2100m) 8(3900m)
Ortszeit Luftdruck NN (hPa) Tendenz (hPa in 3 Std.)
Sa, 18.08. 8:00 1021 + 0,5
Sa, 18.08. 2:00 1020 + 1,2
Fr, 17.08. 20:00 1015 + 1,4
Fr, 17.08. 14:00 1014 - 0,4
Fr, 17.08. 8:00 1016 + 0,8
Fr, 17.08. 2:00 1016 - 0,1
Do, 16.08. 20:00 1012 - 0,5
Do, 16.08. 14:00 1014 - 1,3
Ortszeit Luftdruck NN (hPa) Tendenz (hPa in 3 Std.)
Sa, 18.08. 8:00 1021 + 0,5
Sa, 18.08. 7:50 1021 keine Meldung
Sa, 18.08. 7:40 1021 keine Meldung
Sa, 18.08. 7:30 1021 + 0,2
Sa, 18.08. 7:20 1021 keine Meldung
Sa, 18.08. 7:10 1021 keine Meldung
Sa, 18.08. 7:00 1021 + 0,2
Sa, 18.08. 6:30 1021 + 0,1
Sa, 18.08. 6:00 1021 + 0,3
Sa, 18.08. 5:30 1020 + 0,1
Sa, 18.08. 5:00 1020 + 0,2
Ortszeit Schneehöhe (cm)
Sa, 18.08. 8:00 -
Sa, 18.08. 2:00 -
Fr, 17.08. 20:00 -
Fr, 17.08. 14:00 -
Fr, 17.08. 8:00 -
Fr, 17.08. 2:00 -
Do, 16.08. 20:00 -
Do, 16.08. 14:00 -
Ortszeit Schneehöhe (cm)
Sa, 18.08. 8:00 -
Sa, 18.08. 7:50 -
Sa, 18.08. 7:40 -
Sa, 18.08. 7:30 -
Sa, 18.08. 7:20 -
Sa, 18.08. 7:10 -
Sa, 18.08. 7:00 -
Sa, 18.08. 6:30 -
Sa, 18.08. 6:00 -
Sa, 18.08. 5:30 -
Sa, 18.08. 5:00 -
Link zu dieser Seite / Seite empfehlen

Das Wetter in ...